LFSU weather

Langres Rolampont Airport
Strasbourg, Champagne-Ardenne, France

Public forecast

Using degrees Celsius for public forecast. Weather courtesy of forecast.io.

METAR (pilot weather report)

Closest report is Épinal-Mirecourt Airport, 37.8 nm (70.0 km) NE. Retrieved 2019/09/23 06:30 UTC (13 minutes ago):

LFSG 230630Z AUTO 23007KT 9999 FEW019 OVC031 14/12 Q1017

TAF (pilot weather forecast)

Forecast is more than 12 hours old.

Closest forecast is Dijon-Bourgogne Airport, 42.6 nm (79.0 km) SSW. Retrieved 2015/06/01 00:11 UTC (4 years ago):

TAF LFSD 010600Z 0100/0124 CNL